Latest Coastal Weather Observations for Hindmarsh Island

IDS60701

Issued at 12:41 am CDT Tuesday 26 March 2019 (issued every 10 minutes, with the page automatically refreshed every 10 minutes)

About coastal observations | Map of coastal stations | Coastal observations for SA | Marine services | Other Formats
Station Details ID: 023894 Name: HINDMARSH ISLAND AWS Lat: -35.52 Lon: 138.82 Height: 11.0 m
Data from the previous 72 hours. | See also: Recent months at Hindmarsh Island
Date/Time
CDT
Wind Sea
Height
m
Swell Vis
km
Cloud Weather Temp
°C
Press
hPa
Rain since
9am
mm
Dir  Spd
kts
Gust
kts
Height
m
Period
s
Dir
26/12:30am WNW 11 17 - - - - - - - 14.7 1019.4 0.0
26/12:00am WNW 12 16 - - - - - - - 14.8 1019.1 0.0
 
Date/Time
CDT
Wind Sea
Height
m
Swell Vis
km
Cloud Weather Temp
°C
Press
hPa
Rain since
9am
mm
Dir  Spd
kts
Gust
kts
Height
m
Period
s
Dir
25/11:30pm WNW 13 18 - - - - - - - 15.0 1019.1 0.0
25/11:00pm WNW 12 16 - - - - - - - 14.9 1019.1 0.0
25/10:30pm WNW 11 14 - - - - - - - 14.5 1019.0 0.0
25/10:00pm WNW 11 16 - - - - - - - 15.2 1018.8 0.0
25/09:34pm SW 16 29 - - - - - - - 16.1 1018.5 0.0
25/09:30pm WSW 16 23 - - - - - - - 16.0 1018.4 0.0
25/09:00pm SW 18 24 - - - - - - - 16.1 1018.1 0.0
25/08:30pm WSW 17 24 - - - - - - - 15.7 1017.7 0.0
25/08:00pm SW 20 27 - - - - - - - 16.0 1017.1 0.0
25/07:30pm SW 22 29 - - - - - - - 15.9 1016.7 0.0
25/07:00pm SW 21 26 - - - - - - - 16.2 1016.3 0.0
25/06:30pm SW 24 29 - - - - - - - 16.5 1016.0 0.0
25/06:00pm SW 23 29 - - - - - - - 16.9 1015.6 0.0
25/05:30pm SW 23 28 - - - - - - - 17.2 1015.0 0.0
25/05:00pm SW 24 29 - - - - - - - 16.9 1014.8 0.0
25/04:30pm SW 22 27 - - - - - - - 17.7 1014.8 0.0
25/04:00pm SW 24 30 - - - - - - - 17.6 1014.5 0.0
25/03:30pm SW 23 29 - - - - - - - 17.7 1014.2 0.0
25/03:00pm SW 22 27 - - - - - - - 19.0 1014.2 0.0
25/02:30pm SW 21 29 - - - - - - - 18.8 1014.4 0.0
25/02:00pm SW 23 32 - - - - - - - 17.8 1014.4 0.0
25/01:30pm SW 21 29 - - - - - - - 18.5 1014.3 0.0
25/01:00pm SW 20 29 - - - - - - - 18.5 1014.4 0.0
25/12:30pm SW 21 28 - - - - - - - 18.4 1014.3 0.0
25/12:08pm WSW 20 30 - - - - - - - 17.9 1014.3 0.0
25/12:00pm WSW 21 30 - - - - - - - 16.9 1014.2 0.0
25/11:30am WSW 20 32 - - - - - - - 17.7 1014.1 0.0
25/11:26am WSW 21 32 - - - - - - - 17.2 1013.9 0.0
25/11:00am WSW 21 29 - - - - - - - 17.7 1013.7 0.0
25/10:40am WSW 17 27 - - - - - - - 16.9 1013.7 0.0
25/10:30am WSW 22 30 - - - - - - - 16.5 1013.5 0.0
25/10:18am WSW 19 29 - - - - - - - 16.0 1013.5 0.0
25/10:00am WSW 19 26 - - - - - - - 16.5 1013.1 0.0
25/09:30am WSW 17 29 - - - - - - - 15.6 1012.5 0.0
25/09:20am WSW 17 27 - - - - - - - 15.5 1012.3 0.0
25/09:00am W 18 25 - - - - - - - 15.4 1012.1 0.4
25/08:30am WSW 17 24 - - - - - - - 15.5 1011.5 0.4
25/08:00am W 15 21 - - - - - - - 14.6 1011.2 0.4
25/07:30am W 16 24 - - - - - - - 14.4 1010.4 0.4
25/07:00am W 17 23 - - - - - - - 14.7 1010.0 0.4
25/06:37am W 16 26 - - - - - - - 14.7 1009.6 0.4
25/06:30am W 18 26 - - - - - - - 14.8 1009.4 0.4
25/06:00am W 17 24 - - - - - - - 14.8 1008.9 0.4
25/05:32am W 17 27 - - - - - - - 15.2 1008.7 0.4
25/05:30am W 18 27 - - - - - - - 15.2 1008.5 0.4
25/05:00am W 13 21 - - - - - - - 15.4 1008.3 0.4
25/04:30am WSW 19 27 - - - - - - - 15.4 1007.9 0.4
25/04:02am W 19 30 - - - - - - - 16.0 1007.2 0.4
25/04:00am W 18 26 - - - - - - - 16.0 1007.3 0.4
25/03:42am W 17 27 - - - - - - - 16.1 1007.2 0.4
25/03:30am WSW 19 27 - - - - - - - 16.1 1007.1 0.4
25/03:00am WSW 17 26 - - - - - - - 16.3 1007.1 0.4
25/02:58am WSW 17 27 - - - - - - - 16.2 1007.1 0.4
25/02:30am WSW 16 25 - - - - - - - 16.5 1007.0 0.4
25/02:00am W 24 35 - - - - - - - 16.8 1006.6 0.4
25/01:41am W 16 27 - - - - - - - 17.0 1006.6 0.4
25/01:30am W 16 24 - - - - - - - 16.8 1006.4 0.4
25/01:05am W 19 29 - - - - - - - 17.1 1006.4 0.4
25/01:00am WSW 21 29 - - - - - - - 17.1 1006.2 0.4
25/12:34am WSW 17 27 - - - - - - - 17.2 1006.3 0.4
25/12:30am WSW 18 25 - - - - - - - 17.3 1006.4 0.4
25/12:00am WSW 15 25 - - - - - - - 17.4 1006.2 0.4
 
Date/Time
CDT
Wind Sea
Height
m
Swell Vis
km
Cloud Weather Temp
°C
Press
hPa
Rain since
9am
mm
Dir  Spd
kts
Gust
kts
Height
m
Period
s
Dir
24/11:51pm WSW 17 27 - - - - - - - 17.4 1006.2 0.4
24/11:30pm WSW 17 26 - - - - - - - 17.4 1006.2 0.4
24/11:00pm W 17 23 - - - - - - - 17.0 1006.0 0.4
24/10:32pm W 16 26 - - - - - - - 17.3 1005.8 0.2
24/10:30pm W 17 25 - - - - - - - 17.4 1005.9 0.2
24/10:00pm W 25 39 - - - - - - - 18.1 1005.3 0.2
24/09:56pm W 25 39 - - - - - - - 18.2 1005.3 0.2
24/09:55pm W 25 39 - - - - - - - 18.2 1005.1 0.2
24/09:38pm W 20 32 - - - - - - - 18.4 1005.2 0.2
24/09:30pm WSW 23 32 - - - - - - - 18.6 1005.1 0.2
24/09:29pm WSW 23 32 - - - - - - - 18.6 1005.1 0.2
24/09:00pm WNW 23 37 - - - - - - - 20.7 1004.4 0.2
24/08:30pm WNW 21 31 - - - - - - - 20.5 1004.3 0.2
24/08:11pm WNW 21 35 - - - - - - - 20.4 1004.5 0.2
24/08:00pm WNW 20 29 - - - - - - - 20.4 1004.4 0.2
24/07:42pm WNW 24 34 - - - - - - - 19.8 1004.4 0.2
24/07:30pm W 22 34 - - - - - - - 19.3 1004.7 0.2
24/07:00pm WNW 20 30 - - - - - - - 22.1 1003.9 0.2
24/06:30pm WNW 20 32 - - - - - - - 22.3 1003.6 0.2
24/06:14pm WNW 16 27 - - - - - - - 22.6 1003.8 0.2
24/06:00pm NW 16 23 - - - - - - - 23.2 1003.8 0.2
24/05:30pm NW 14 22 - - - - - - - 23.2 1003.9 0.2
24/05:00pm WNW 13 19 - - - - - - - 21.3 1004.7 0.2
24/04:32pm WNW 15 26 - - - - - - - 21.2 1004.6 0.2
24/04:30pm WNW 14 23 - - - - - - - 21.3 1004.7 0.2
24/04:00pm W 15 20 - - - - - - - 20.9 1004.7 0.2
24/03:33pm WNW 20 28 - - - - - - - 21.0 1004.6 0.2
24/03:30pm WNW 21 29 - - - - - - - 21.6 1004.5 0.2
24/03:03pm NW 21 31 - - - - - - - 24.9 1004.2 0.2
24/03:00pm NW 22 31 - - - - - - - 24.7 1004.1 0.2
24/02:37pm NW 19 31 - - - - - - - 25.4 1004.5 0.2
24/02:30pm NW 18 25 - - - - - - - 25.9 1004.7 0.2
24/02:12pm NW 20 31 - - - - - - - 25.8 1005.0 0.2
24/02:00pm NW 17 25 - - - - - - - 26.1 1005.2 0.2
24/01:30pm NW 15 21 - - - - - - - 26.0 1005.8 0.2
24/01:00pm NW 18 24 - - - - - - - 25.6 1006.5 0.0
24/12:30pm NW 14 20 - - - - - - - 26.3 1007.0 0.0
24/12:00pm NW 15 20 - - - - - - - 25.3 1007.2 0.0
24/11:30am NW 15 22 - - - - - - - 24.4 1007.8 0.0
24/11:25am NW 13 22 - - - - - - - 24.4 1007.7 0.0
24/11:00am NNW 6 8 - - - - - - - 23.9 1007.8 0.0
24/10:30am NNE 6 8 - - - - - - - 21.8 1008.2 0.0
24/10:00am N 6 8 - - - - - - - 20.5 1008.7 0.0
24/09:30am NNE 7 8 - - - - - - - 19.1 1009.2 0.0
24/09:00am NNE 6 7 - - - - - - - 18.5 1009.4 0.4
24/08:30am NE 4 5 - - - - - - - 18.3 1009.6 0.4
24/08:00am ENE 1 4 - - - - - - - 18.0 1009.6 0.4
24/07:30am NE 4 5 - - - - - - - 17.8 1009.7 0.4
24/07:00am ENE 5 6 - - - - - - - 17.8 1009.8 0.2
24/06:30am ENE 5 6 - - - - - - - 18.0 1009.9 0.2
24/06:00am SE 5 6 - - - - - - Recent precip. 18.0 1009.8 0.2
24/05:30am SSE 5 7 - - - - - - - 18.0 1010.0 0.2
24/05:00am SSW 5 6 - - - - - - - 17.9 1010.2 0.0
24/04:30am SSW 6 8 - - - - - - - 18.1 1010.1 0.0
24/04:00am S 7 8 - - - - - - - 18.1 1010.4 0.0
24/03:30am S 7 9 - - - - - - - 18.3 1010.5 0.0
24/03:00am SSW 9 11 - - - - - - - 18.3 1010.9 0.0
24/02:30am SSW 13 15 - - - - - - - 18.4 1011.2 0.0
24/02:00am SSW 11 14 - - - - - - - 19.1 1011.2 0.0
24/01:30am SSW 12 14 - - - - - - - 19.1 1011.3 0.0
24/01:00am SW 11 13 - - - - - - - 19.4 1011.7 0.0
24/12:30am W 9 13 - - - - - - - 20.2 1012.0 0.0
24/12:00am WSW 5 8 - - - - - - - 19.9 1012.2 0.0
 
Date/Time
CDT
Wind Sea
Height
m
Swell Vis
km
Cloud Weather Temp
°C
Press
hPa
Rain since
9am
mm
Dir  Spd
kts
Gust
kts
Height
m
Period
s
Dir
23/11:30pm NNW 5 7 - - - - - - - 19.5 1012.3 0.0
23/11:00pm N 4 5 - - - - - - - 19.3 1012.1 0.0
23/10:30pm CALM 0 3 - - - - - - - 19.3 1012.2 0.0
23/10:00pm N 6 9 - - - - - - - 19.8 1012.2 0.0
23/09:30pm NNE 5 6 - - - - - - - 19.8 1012.3 0.0
23/09:00pm SSE 1 5 - - - - - - - 19.3 1012.6 0.0
23/08:30pm CALM 0 0 - - - - - - - 19.6 1012.8 0.0
23/08:00pm SW 3 5 - - - - - - - 19.8 1012.6 0.0
23/07:30pm SW 7 9 - - - - - - - 19.9 1012.3 0.0
23/07:00pm SSW 9 10 - - - - - - - 20.0 1011.8 0.0
23/06:30pm SSW 8 10 - - - - - - - 19.9 1011.1 0.0
23/06:00pm SSW 12 14 - - - - - - - 20.3 1010.8 0.0
23/05:30pm SSW 12 14 - - - - - - - 20.5 1010.2 0.0
23/05:00pm SSW 12 14 - - - - - - - 21.3 1010.2 0.0
23/04:30pm SSW 10 13 - - - - - - - 21.8 1010.0 0.0
23/04:00pm S 14 16 - - - - - - - 21.5 1009.8 0.0
23/03:30pm S 15 18 - - - - - - - 22.7 1010.0 0.0
23/03:00pm S 15 17 - - - - - - - 22.1 1009.9 0.0
23/02:30pm SSW 16 19 - - - - - - - 22.1 1010.0 0.0
23/02:00pm SSW 16 17 - - - - - - - 23.4 1010.2 0.0
23/01:30pm SSW 17 19 - - - - - - - 23.4 1010.4 0.0
23/01:00pm SSW 14 17 - - - - - - - 23.4 1010.8 0.0
23/12:30pm SW 15 17 - - - - - - - 22.3 1010.7 0.0
23/12:00pm SW 15 19 - - - - - - - 22.3 1010.8 0.0
23/11:30am SSW 14 16 - - - - - - - 22.6 1010.6 0.0
23/11:00am SW 11 15 - - - - - - - 22.4 1010.7 0.0
23/10:30am SW 11 13 - - - - - - - 22.4 1010.6 0.0
23/10:00am WSW 12 15 - - - - - - - 21.9 1010.5 0.0
23/09:30am WSW 11 16 - - - - - - - 20.8 1010.1 0.0
23/09:00am SW 11 14 - - - - - - - 20.3 1009.8 0.0
23/08:30am SW 11 15 - - - - - - - 19.7 1009.4 0.0
23/08:00am W 10 13 - - - - - - - 19.4 1009.0 0.0
23/07:30am WSW 9 12 - - - - - - - 19.1 1008.5 0.0
23/07:00am SW 8 11 - - - - - - - 19.0 1008.2 0.0
23/06:30am W 8 12 - - - - - - - 19.6 1008.3 0.0
23/06:00am WSW 7 10 - - - - - - - 19.4 1007.9 0.0
23/05:30am W 8 11 - - - - - - - 19.7 1007.8 0.0
23/05:00am WSW 9 11 - - - - - - - 19.9 1007.3 0.0
23/04:30am W 7 9 - - - - - - - 20.4 1007.3 0.0
23/04:00am WSW 9 12 - - - - - - - 20.4 1007.6 0.0
23/03:30am WSW 8 11 - - - - - - - 19.9 1007.6 0.0
23/03:00am WSW 5 6 - - - - - - - 19.4 1007.6 0.0
23/02:30am WSW 5 6 - - - - - - - 19.4 1007.7 0.0
23/02:00am W 5 6 - - - - - - - 19.2 1007.9 0.0
23/01:30am WNW 4 6 - - - - - - - 19.4 1007.8 0.0
23/01:00am W 4 6 - - - - - - - 19.6 1007.9 0.0

Other formats

Comma delimited format used in spreadsheet applications
http://www.bom.gov.au/fwo/IDS60701/IDS60701.94677.axf

JavaScript Object Notation format (JSON) in row-major order
http://www.bom.gov.au/fwo/IDS60701/IDS60701.94677.json

Data quality

Most of these data are generated automatically and are frequently updated. Quality checks on data are not normally performed. It is possible for incorrect values to appear. Refer to information at About Latest Weather Observations and please check the disclaimer before using these data.